Time;durP1;ratioP1;P1;durP2;ratioP2;P2;SDS_P1;SDS_P2;PMS_P1;PMS_P2;Temp;Humidity;BMP_temperature;BMP_pressure;BME280_temperature;BME280_humidity;BME280_pressure;Samples;Min_cycle;Max_cycle;Signal;HPM_P1;HPM_P2
2023/09/17 00:01:12;;;;;;;31.58;12.90;;;9.80;99.90;;;;;;5158417;27;20050;-27
2023/09/17 00:03:37;;;;;;;19.15;13.55;;;9.70;99.90;;;;;;5157061;27;20051;-27
2023/09/17 00:06:04;;;;;;;26.85;18.88;;;9.70;99.90;;;;;;5158895;27;20039;-27
2023/09/17 00:08:30;;;;;;;21.80;16.75;;;9.70;99.90;;;;;;5158380;27;20093;-26
2023/09/17 00:10:55;;;;;;;17.05;12.48;;;9.70;99.90;;;;;;5156772;27;20078;-27
2023/09/17 00:13:24;;;;;;;15.80;13.90;;;9.70;99.90;;;;;;5158188;27;20053;-27
2023/09/17 00:15:52;;;;;;;17.08;15.25;;;9.70;99.90;;;;;;5157795;27;20510;-28
2023/09/17 00:18:20;;;;;;;19.63;16.70;;;9.60;99.90;;;;;;5158175;27;20134;-27
2023/09/17 00:20:45;;;;;;;38.40;25.88;;;9.60;99.90;;;;;;5156884;27;20133;-28
2023/09/17 00:23:13;;;;;;;42.00;30.90;;;9.70;99.90;;;;;;5158027;27;20089;-27
2023/09/17 00:25:40;;;;;;;66.07;41.08;;;9.70;99.90;;;;;;5140259;27;20051;-27
2023/09/17 00:28:06;;;;;;;35.83;28.08;;;9.80;99.90;;;;;;5157963;27;20065;-27
2023/09/17 00:30:32;;;;;;;26.73;23.98;;;9.80;99.90;;;;;;5157916;27;20042;-27
2023/09/17 00:32:57;;;;;;;33.42;20.95;;;9.80;99.90;;;;;;5157749;27;20045;-27
2023/09/17 00:35:23;;;;;;;23.17;20.83;;;9.70;99.90;;;;;;5158582;27;20074;-27
2023/09/17 00:37:51;;;;;;;21.42;19.25;;;9.60;99.90;;;;;;5157394;27;20456;-27
2023/09/17 00:40:17;;;;;;;20.85;18.75;;;9.50;99.90;;;;;;5157700;27;20094;-27
2023/09/17 00:42:42;;;;;;;23.00;20.67;;;9.50;99.90;;;;;;5158175;27;20147;-27
2023/09/17 00:45:11;;;;;;;20.10;18.20;;;9.40;99.90;;;;;;5157247;27;20121;-27
2023/09/17 00:47:38;;;;;;;18.92;17.00;;;9.40;99.90;;;;;;5157411;27;20038;-27
2023/09/17 00:50:04;;;;;;;26.73;22.58;;;9.40;99.90;;;;;;5157411;27;20051;-27
2023/09/17 00:52:33;;;;;;;30.08;21.75;;;9.50;99.90;;;;;;5157486;27;20130;-27
2023/09/17 00:55:00;;;;;;;19.25;17.13;;;9.50;99.90;;;;;;5157947;27;20043;-27
2023/09/17 00:57:28;;;;;;;19.42;17.48;;;9.50;99.90;;;;;;5122010;27;20050;-27
2023/09/17 00:59:56;;;;;;;20.20;17.67;;;9.60;99.90;;;;;;5157876;27;20043;-27
2023/09/17 01:02:27;;;;;;;26.80;21.90;;;9.60;99.90;;;;;;5157246;27;20050;-27
2023/09/17 01:04:54;;;;;;;18.95;16.95;;;9.60;99.90;;;;;;5158382;27;20123;-27
2023/09/17 01:07:20;;;;;;;20.08;17.98;;;9.60;99.90;;;;;;5157211;27;20484;-26
2023/09/17 01:09:49;;;;;;;16.65;15.05;;;9.60;99.90;;;;;;5157049;27;20042;-27
2023/09/17 01:12:17;;;;;;;16.70;15.07;;;9.60;99.90;;;;;;5157031;27;20042;-27
2023/09/17 01:14:44;;;;;;;18.52;16.70;;;9.60;99.90;;;;;;5155711;27;20078;-27
2023/09/17 01:17:13;;;;;;;18.17;16.48;;;9.50;99.90;;;;;;5155747;27;20104;-27
2023/09/17 01:19:42;;;;;;;23.73;20.77;;;9.50;99.90;;;;;;5156972;27;20134;-27
2023/09/17 01:22:11;;;;;;;27.13;22.98;;;9.60;99.90;;;;;;5156831;27;20046;-27
2023/09/17 01:24:48;;;;;;;29.88;25.20;;;9.80;99.90;;;;;;5139054;27;20414;-27
2023/09/17 01:27:18;;;;;;;39.72;29.90;;;10.00;99.90;;;;;;5155581;27;20445;-27
2023/09/17 01:29:46;;;;;;;36.03;27.08;;;10.10;99.90;;;;;;5156690;27;20042;-27
2023/09/17 01:32:14;;;;;;;37.40;27.58;;;10.20;99.90;;;;;;5157457;27;20051;-27
2023/09/17 01:34:42;;;;;;;31.00;25.08;;;10.20;99.90;;;;;;5157086;27;20081;-27
2023/09/17 01:37:15;;;;;;;25.55;22.67;;;10.20;99.90;;;;;;5155311;27;20046;-27
2023/09/17 01:39:46;;;;;;;40.60;29.40;;;10.20;99.90;;;;;;5156563;27;20556;-27
2023/09/17 01:42:15;;;;;;;27.55;24.35;;;10.20;99.90;;;;;;5157625;27;20070;-27
2023/09/17 01:44:42;;;;;;;30.83;24.88;;;10.30;99.90;;;;;;5156439;27;20400;-26
2023/09/17 01:47:09;;;;;;;26.85;23.17;;;10.30;99.90;;;;;;5156313;27;20503;-26
2023/09/17 01:49:35;;;;;;;23.90;21.60;;;10.30;99.90;;;;;;5156219;27;20556;-27
2023/09/17 01:52:01;;;;;;;27.52;24.63;;;10.30;99.90;;;;;;5157084;27;20137;-27
2023/09/17 01:54:27;;;;;;;30.48;22.90;;;10.40;99.90;;;;;;5156113;27;20035;-28
2023/09/17 01:56:52;;;;;;;25.00;22.48;;;10.30;99.90;;;;;;5156148;27;20103;-27
2023/09/17 01:59:20;;;;;;;28.63;25.55;;;10.30;99.90;;;;;;5156061;27;20089;-27
2023/09/17 02:01:46;;;;;;;24.75;22.42;;;10.30;99.90;;;;;;5156101;27;20035;-27
2023/09/17 02:04:12;;;;;;;27.92;25.02;;;10.30;99.90;;;;;;5155960;27;20122;-27
2023/09/17 02:06:37;;;;;;;29.75;26.52;;;10.40;99.90;;;;;;5156004;27;20047;-27
2023/09/17 02:09:05;;;;;;;27.38;24.58;;;10.50;99.90;;;;;;5155633;27;20126;-27
2023/09/17 02:11:32;;;;;;;36.85;29.73;;;10.60;99.90;;;;;;5156474;27;20050;-27
2023/09/17 02:13:57;;;;;;;35.00;29.08;;;10.70;99.90;;;;;;5154869;27;20141;-27
2023/09/17 02:16:24;;;;;;;30.45;25.95;;;10.80;99.90;;;;;;5156008;27;20547;-27
2023/09/17 02:18:51;;;;;;;35.03;29.33;;;11.00;99.90;;;;;;5155451;27;20102;-27
2023/09/17 02:21:17;;;;;;;38.83;31.95;;;11.10;99.90;;;;;;5155809;27;20046;-27
2023/09/17 02:23:44;;;;;;;41.47;33.17;;;11.20;99.90;;;;;;5155685;27;20039;-27
2023/09/17 02:26:10;;;;;;;36.17;31.70;;;11.30;99.90;;;;;;5155749;27;20043;-27
2023/09/17 02:28:36;;;;;;;46.30;33.22;;;11.40;99.90;;;;;;5154467;27;20171;-27
2023/09/17 02:31:02;;;;;;;37.63;29.38;;;11.50;99.90;;;;;;5155611;27;20513;-27
2023/09/17 02:33:31;;;;;;;43.17;33.15;;;11.50;99.90;;;;;;5154663;27;20050;-27
2023/09/17 02:35:57;;;;;;;36.03;29.60;;;11.50;99.90;;;;;;5155533;27;20582;-26
2023/09/17 02:38:23;;;;;;;47.55;32.15;;;11.50;99.90;;;;;;5155523;27;20054;-27
2023/09/17 02:40:48;;;;;;;30.30;26.88;;;11.50;99.90;;;;;;5155421;27;20047;-27
2023/09/17 02:43:14;;;;;;;26.08;23.35;;;11.50;99.90;;;;;;5137474;27;20053;-27
2023/09/17 02:45:40;;;;;;;29.75;25.77;;;11.50;99.90;;;;;;5155392;27;20070;-27
2023/09/17 02:48:06;;;;;;;27.63;24.52;;;11.50;99.90;;;;;;5156206;27;20134;-27
2023/09/17 02:50:32;;;;;;;32.78;26.50;;;11.50;99.90;;;;;;5155309;27;20388;-27
2023/09/17 02:52:58;;;;;;;30.80;25.88;;;11.50;99.90;;;;;;5154169;27;20065;-27
2023/09/17 02:55:23;;;;;;;33.80;25.52;;;11.60;99.90;;;;;;5155240;27;20090;-27
2023/09/17 02:57:49;;;;;;;32.72;27.33;;;11.70;99.90;;;;;;5155340;27;20086;-27
2023/09/17 03:00:17;;;;;;;31.73;27.02;;;11.70;99.90;;;;;;5155277;27;20130;-27
2023/09/17 03:02:47;;;;;;;32.92;27.33;;;11.80;99.90;;;;;;5155194;27;20047;-27
2023/09/17 03:05:14;;;;;;;31.23;26.73;;;11.90;99.90;;;;;;5154721;27;20047;-27
2023/09/17 03:07:40;;;;;;;44.35;34.22;;;11.90;99.90;;;;;;5156035;27;20039;-28
2023/09/17 03:10:10;;;;;;;40.53;32.13;;;12.00;99.90;;;;;;5155754;27;20410;-27
2023/09/17 03:12:38;;;;;;;48.13;34.08;;;12.00;99.90;;;;;;5155188;27;20046;-27
2023/09/17 03:15:05;;;;;;;42.22;31.30;;;12.10;99.90;;;;;;5154493;27;20423;-27
2023/09/17 03:17:31;;;;;;;37.50;29.35;;;12.10;99.90;;;;;;5153894;27;20043;-27
2023/09/17 03:19:57;;;;;;;36.38;25.33;;;12.10;99.90;;;;;;5155128;27;20492;-27
2023/09/17 03:22:23;;;;;;;28.30;24.60;;;12.10;99.90;;;;;;5155393;27;20144;-27
2023/09/17 03:24:51;;;;;;;29.48;26.02;;;12.10;99.90;;;;;;5153882;27;20498;-27
2023/09/17 03:27:16;;;;;;;29.45;25.00;;;12.10;99.90;;;;;;5153877;27;20039;-27
2023/09/17 03:29:42;;;;;;;32.67;25.88;;;12.10;99.90;;;;;;5156590;27;20039;-27
2023/09/17 03:32:08;;;;;;;29.85;26.60;;;12.10;99.90;;;;;;5158703;27;20121;-27
2023/09/17 03:34:34;;;;;;;35.40;30.52;;;12.20;99.90;;;;;;5157639;27;20383;-27
2023/09/17 03:36:59;;;;;;;43.80;32.60;;;12.20;99.90;;;;;;5140933;27;20047;-27
2023/09/17 03:39:25;;;;;;;57.28;40.38;;;12.30;99.90;;;;;;5158794;27;20054;-27
2023/09/17 03:41:51;;;;;;;67.97;45.72;;;12.60;99.90;;;;;;5157654;27;20050;-27
2023/09/17 03:44:17;;;;;;;62.42;45.45;;;13.00;99.90;;;;;;5159362;27;20474;-27
2023/09/17 03:46:42;;;;;;;81.28;51.63;;;13.30;99.90;;;;;;5157491;27;20072;-27
2023/09/17 03:49:08;;;;;;;75.50;52.45;;;13.50;99.90;;;;;;5157730;27;20042;-27
2023/09/17 03:51:34;;;;;;;80.25;53.20;;;13.60;99.90;;;;;;5158722;27;20046;-27
2023/09/17 03:54:01;;;;;;;80.65;54.55;;;13.80;99.90;;;;;;5157386;27;20034;-27
2023/09/17 03:56:27;;;;;;;85.28;56.78;;;14.00;99.90;;;;;;5158593;27;20043;-27
2023/09/17 03:58:53;;;;;;;77.53;53.38;;;14.00;99.90;;;;;;5157582;27;20123;-27
2023/09/17 04:01:20;;;;;;;81.70;53.90;;;14.20;99.90;;;;;;5158472;27;20088;-27
2023/09/17 04:03:45;;;;;;;67.07;49.83;;;14.20;99.90;;;;;;5158191;27;20530;-27
2023/09/17 04:06:11;;;;;;;68.93;48.22;;;14.30;99.90;;;;;;5158373;27;20090;-27
2023/09/17 04:08:37;;;;;;;64.75;47.35;;;14.30;99.90;;;;;;5157112;27;20042;-27
2023/09/17 04:11:04;;;;;;;60.10;47.42;;;14.30;99.90;;;;;;5157978;27;20134;-27
2023/09/17 04:13:30;;;;;;;63.40;47.78;;;14.30;99.90;;;;;;5158879;27;20050;-28
2023/09/17 04:15:56;;;;;;;73.30;53.25;;;14.40;99.90;;;;;;5158058;27;20039;-27
2023/09/17 04:18:22;;;;;;;74.70;51.22;;;14.40;99.90;;;;;;5158214;27;20053;-27
2023/09/17 04:20:48;;;;;;;69.22;49.95;;;14.40;99.90;;;;;;5158095;27;20042;-27
2023/09/17 04:23:13;;;;;;;59.95;44.08;;;14.40;99.90;;;;;;5158852;27;20430;-27
2023/09/17 04:25:39;;;;;;;61.50;47.00;;;14.30;99.90;;;;;;5157958;27;20043;-27
2023/09/17 04:28:06;;;;;;;59.38;45.78;;;14.40;99.90;;;;;;5157983;27;20095;-27
2023/09/17 04:30:31;;;;;;;65.60;47.20;;;14.40;99.90;;;;;;5139556;27;20046;-27
2023/09/17 04:32:57;;;;;;;55.10;44.15;;;14.40;99.90;;;;;;5158682;27;20126;-27
2023/09/17 04:35:23;;;;;;;68.15;49.30;;;14.30;99.90;;;;;;5158034;27;20031;-27
2023/09/17 04:37:50;;;;;;;58.65;43.90;;;14.30;99.90;;;;;;5157783;27;20450;-28
2023/09/17 04:40:17;;;;;;;57.88;42.70;;;14.30;99.90;;;;;;5157260;27;20373;-27
2023/09/17 04:42:44;;;;;;;60.67;45.08;;;14.30;99.90;;;;;;5139637;27;20038;-27
2023/09/17 04:45:11;;;;;;;57.38;43.95;;;14.20;99.90;;;;;;5157635;27;20074;-27
2023/09/17 04:47:37;;;;;;;65.43;47.40;;;14.20;99.90;;;;;;5157587;27;20050;-27
2023/09/17 04:50:08;;;;;;;58.03;44.72;;;14.30;99.90;;;;;;5158074;27;20046;-27
2023/09/17 04:52:34;;;;;;;59.15;44.38;;;14.30;99.90;;;;;;5158124;27;20077;-27
2023/09/17 04:55:00;;;;;;;52.35;41.25;;;14.20;99.90;;;;;;5157394;27;20129;-27
2023/09/17 04:57:26;;;;;;;50.13;40.22;;;14.30;99.90;;;;;;5155850;27;20487;-27
2023/09/17 04:59:51;;;;;;;52.70;41.85;;;14.30;99.90;;;;;;5156619;27;20133;-27
2023/09/17 05:02:17;;;;;;;48.75;39.75;;;14.30;99.90;;;;;;5139684;27;20046;-27
2023/09/17 05:04:43;;;;;;;52.60;43.03;;;14.30;99.90;;;;;;5121745;27;20050;-28
2023/09/17 05:07:09;;;;;;;51.40;40.00;;;14.30;99.90;;;;;;5157155;27;20468;-27
2023/09/17 05:09:35;;;;;;;49.67;40.97;;;14.30;99.90;;;;;;5156008;27;20126;-27
2023/09/17 05:12:01;;;;;;;46.08;37.85;;;14.40;99.90;;;;;;5157087;27;20093;-27
2023/09/17 05:14:28;;;;;;;61.53;43.35;;;14.40;99.90;;;;;;5156657;27;20426;-27
2023/09/17 05:16:54;;;;;;;54.30;42.78;;;14.40;99.90;;;;;;5156574;27;20388;-27
2023/09/17 05:19:19;;;;;;;48.65;40.75;;;14.40;99.90;;;;;;5157449;27;20041;-27
2023/09/17 05:21:45;;;;;;;51.10;41.55;;;14.40;99.90;;;;;;5156256;27;20145;-27
2023/09/17 05:24:11;;;;;;;45.00;37.45;;;14.40;99.90;;;;;;5156814;27;20047;-27
2023/09/17 05:26:37;;;;;;;55.75;42.08;;;14.50;99.90;;;;;;5156730;27;20069;-27
2023/09/17 05:29:02;;;;;;;47.10;39.42;;;14.50;99.90;;;;;;5121115;27;20098;-27
2023/09/17 05:31:28;;;;;;;52.15;39.92;;;14.50;99.90;;;;;;5155495;27;20050;-27
2023/09/17 05:33:54;;;;;;;46.33;39.10;;;14.50;99.90;;;;;;5156134;27;20203;-28
2023/09/17 05:36:19;;;;;;;52.10;39.72;;;14.60;99.90;;;;;;5155309;27;20047;-27
2023/09/17 05:38:45;;;;;;;49.65;40.03;;;14.60;99.90;;;;;;5156502;27;20100;-27
2023/09/17 05:41:12;;;;;;;52.25;39.67;;;14.70;99.90;;;;;;5156463;27;20049;-27
2023/09/17 05:43:38;;;;;;;45.13;37.33;;;14.70;99.90;;;;;;5156531;27;20391;-27
2023/09/17 05:46:05;;;;;;;46.22;38.88;;;14.80;99.90;;;;;;5156487;27;20043;-27
2023/09/17 05:48:31;;;;;;;45.15;37.30;;;14.80;99.90;;;;;;5156852;27;20047;-28
2023/09/17 05:50:56;;;;;;;49.17;41.45;;;14.80;99.90;;;;;;5156389;27;20046;-27
2023/09/17 05:53:22;;;;;;;44.22;39.10;;;14.90;99.90;;;;;;5154549;27;20043;-27
2023/09/17 05:55:48;;;;;;;45.25;40.05;;;14.90;99.90;;;;;;5156184;27;20112;-27
2023/09/17 05:58:15;;;;;;;46.65;39.72;;;15.00;99.90;;;;;;5155239;27;20119;-27
2023/09/17 06:00:41;;;;;;;48.78;40.65;;;15.00;99.90;;;;;;5156420;27;20046;-28
2023/09/17 06:03:06;;;;;;;50.45;37.97;;;15.10;99.90;;;;;;5155750;27;20396;-26
2023/09/17 06:05:32;;;;;;;44.63;38.47;;;15.10;99.90;;;;;;5156059;27;20396;-27
2023/09/17 06:07:58;;;;;;;46.42;38.55;;;15.10;99.90;;;;;;5156253;27;20038;-27
2023/09/17 06:10:23;;;;;;;40.60;36.28;;;15.20;99.90;;;;;;5156498;27;20428;-27
2023/09/17 06:12:50;;;;;;;43.65;38.90;;;15.20;99.90;;;;;;5155890;27;20050;-27
2023/09/17 06:15:16;;;;;;;43.28;38.47;;;15.30;99.90;;;;;;5155483;27;20039;-27
2023/09/17 06:17:41;;;;;;;44.28;36.65;;;15.30;99.90;;;;;;5156104;27;20062;-27
2023/09/17 06:20:10;;;;;;;44.65;39.63;;;15.40;99.90;;;;;;5156291;27;20460;-27
2023/09/17 06:22:36;;;;;;;44.75;35.67;;;15.40;99.90;;;;;;5155758;27;20050;-27
2023/09/17 06:25:03;;;;;;;42.30;36.35;;;15.40;99.90;;;;;;5154392;27;20049;-27
2023/09/17 06:27:30;;;;;;;42.65;36.83;;;15.50;99.90;;;;;;5155681;27;20121;-27
2023/09/17 06:29:55;;;;;;;39.42;34.10;;;15.50;99.90;;;;;;5156236;27;20046;-27
2023/09/17 06:32:21;;;;;;;40.88;36.40;;;15.60;99.90;;;;;;5155584;27;20049;-27
2023/09/17 06:34:47;;;;;;;40.30;34.55;;;15.70;99.90;;;;;;5155503;27;20392;-27
2023/09/17 06:37:13;;;;;;;40.40;35.97;;;15.80;99.90;;;;;;5156364;27;20046;-27
2023/09/17 06:39:39;;;;;;;39.80;35.47;;;15.80;99.90;;;;;;5155531;27;20518;-27
2023/09/17 06:42:05;;;;;;;41.05;34.17;;;15.90;99.90;;;;;;5154525;27;20047;-27
2023/09/17 06:44:31;;;;;;;40.83;34.67;;;16.00;99.90;;;;;;5155468;27;20035;-28
2023/09/17 06:46:56;;;;;;;42.05;33.15;;;16.00;99.90;;;;;;5154474;27;20069;-27
2023/09/17 06:49:22;;;;;;;39.28;32.45;;;16.10;99.90;;;;;;5155280;27;20488;-27
2023/09/17 06:51:51;;;;;;;35.50;31.65;;;16.10;99.90;;;;;;5156219;27;20090;-28
2023/09/17 06:54:17;;;;;;;36.75;32.50;;;16.20;99.90;;;;;;5155302;27;20046;-27
2023/09/17 06:56:43;;;;;;;36.35;32.45;;;16.30;99.90;;;;;;5155319;27;20046;-27
2023/09/17 06:59:09;;;;;;;35.10;31.25;;;16.40;99.90;;;;;;5154099;27;20054;-27
2023/09/17 07:01:35;;;;;;;36.08;32.25;;;16.50;99.90;;;;;;5153958;27;20046;-27
2023/09/17 07:04:00;;;;;;;34.92;31.23;;;16.60;99.90;;;;;;5138760;27;20137;-27
2023/09/17 07:06:27;;;;;;;39.20;29.55;;;16.70;99.90;;;;;;5159604;27;20138;-27
2023/09/17 07:08:54;;;;;;;37.60;29.25;;;16.90;99.90;;;;;;5158325;27;20099;-27
2023/09/17 07:11:20;;;;;;;30.23;27.02;;;17.00;99.90;;;;;;5158524;27;20058;-27
2023/09/17 07:13:46;;;;;;;29.55;26.45;;;17.10;99.90;;;;;;5159441;27;20396;-28
2023/09/17 07:16:13;;;;;;;32.30;28.77;;;17.20;99.90;;;;;;5159193;27;20043;-27
2023/09/17 07:18:39;;;;;;;29.25;26.05;;;17.30;99.90;;;;;;5158356;27;20039;-28
2023/09/17 07:21:05;;;;;;;27.70;24.90;;;17.40;99.90;;;;;;5159611;27;20053;-28
2023/09/17 07:23:30;;;;;;;28.00;25.08;;;17.60;99.90;;;;;;5158230;27;20493;-27
2023/09/17 07:25:56;;;;;;;28.20;25.25;;;17.70;99.90;;;;;;5158889;27;20039;-28
2023/09/17 07:28:22;;;;;;;28.35;25.45;;;17.90;99.90;;;;;;5157974;27;20121;-27
2023/09/17 07:30:53;;;;;;;26.50;23.77;;;18.00;99.90;;;;;;5157926;27;20477;-27
2023/09/17 07:33:19;;;;;;;26.75;23.98;;;18.20;99.90;;;;;;5159250;27;20488;-28
2023/09/17 07:35:45;;;;;;;26.55;23.75;;;18.20;99.90;;;;;;5159196;27;20147;-28
2023/09/17 07:38:11;;;;;;;25.95;23.20;;;18.20;99.90;;;;;;5159525;27;20073;-27
2023/09/17 07:40:36;;;;;;;28.27;24.80;;;18.30;99.90;;;;;;5158845;27;20103;-29
2023/09/17 07:43:03;;;;;;;26.95;23.05;;;18.40;99.90;;;;;;5158453;27;20038;-28
2023/09/17 07:45:28;;;;;;;28.15;25.23;;;18.50;99.90;;;;;;5158923;27;20132;-27
2023/09/17 07:47:54;;;;;;;27.10;24.40;;;18.50;99.90;;;;;;5158708;27;20046;-27
2023/09/17 07:50:20;;;;;;;28.13;24.42;;;18.60;99.90;;;;;;5158295;27;20050;-27
2023/09/17 07:52:45;;;;;;;26.92;24.10;;;18.60;99.90;;;;;;5158566;27;20049;-27
2023/09/17 07:55:11;;;;;;;29.05;26.15;;;18.60;99.90;;;;;;5158936;27;20038;-28
2023/09/17 07:57:37;;;;;;;29.23;26.33;;;18.60;99.90;;;;;;5140344;27;20120;-28
2023/09/17 08:00:04;;;;;;;31.17;25.90;;;18.50;99.90;;;;;;5158343;27;20391;-28
2023/09/17 08:02:30;;;;;;;33.13;26.80;;;18.50;99.90;;;;;;5158882;27;20388;-28
2023/09/17 08:04:55;;;;;;;28.83;25.55;;;18.50;99.90;;;;;;5156967;27;20054;-27
2023/09/17 08:07:21;;;;;;;28.30;24.98;;;18.50;99.90;;;;;;5158583;27;20046;-28
2023/09/17 08:09:48;;;;;;;27.33;24.02;;;18.50;99.90;;;;;;5158833;27;20466;-28
2023/09/17 08:12:14;;;;;;;27.90;25.10;;;18.50;99.90;;;;;;5158175;27;20047;-29
2023/09/17 08:14:46;;;;;;;27.75;24.67;;;18.50;99.90;;;;;;5157402;27;20039;-28
2023/09/17 08:17:12;;;;;;;30.23;25.67;;;18.50;99.90;;;;;;5158220;27;20047;-28
2023/09/17 08:19:38;;;;;;;28.25;24.38;;;18.50;99.90;;;;;;5157813;27;20773;-28
2023/09/17 08:22:04;;;;;;;27.13;23.73;;;18.50;99.90;;;;;;5158050;27;20050;-28
2023/09/17 08:24:30;;;;;;;26.77;23.52;;;18.40;99.90;;;;;;5157991;27;20039;-28
2023/09/17 08:26:56;;;;;;;26.00;23.27;;;18.30;99.90;;;;;;5158517;27;20043;-28
2023/09/17 08:29:22;;;;;;;27.65;24.38;;;18.30;99.90;;;;;;5157821;27;20046;-28
2023/09/17 08:31:48;;;;;;;29.23;24.85;;;18.30;99.90;;;;;;5156876;27;20042;-28
2023/09/17 08:34:15;;;;;;;32.42;26.60;;;18.20;99.90;;;;;;5157693;27;20043;-27
2023/09/17 08:36:40;;;;;;;29.00;25.90;;;18.20;99.90;;;;;;5157729;27;20051;-28
2023/09/17 08:39:09;;;;;;;33.08;27.30;;;18.10;99.90;;;;;;5157710;27;20050;-28
2023/09/17 08:41:35;;;;;;;37.10;28.90;;;18.10;99.90;;;;;;5158310;27;20042;-27
2023/09/17 08:44:04;;;;;;;34.90;27.92;;;18.00;99.90;;;;;;5157864;27;20130;-27
2023/09/17 08:46:31;;;;;;;30.92;26.20;;;17.90;99.90;;;;;;5157618;27;20050;-27
2023/09/17 08:48:58;;;;;;;34.28;30.10;;;17.80;99.90;;;;;;5157266;27;20492;-28
2023/09/17 08:51:25;;;;;;;32.90;28.08;;;17.80;99.90;;;;;;5157731;27;20413;-28
2023/09/17 08:53:59;;;;;;;30.48;27.10;;;17.80;99.90;;;;;;5157754;27;20050;-28
2023/09/17 08:56:28;;;;;;;33.10;26.63;;;17.90;99.90;;;;;;5157351;27;20034;-27
2023/09/17 08:59:01;;;;;;;30.75;26.80;;;18.00;99.90;;;;;;5157401;27;20117;-27
2023/09/17 09:01:26;;;;;;;30.40;25.75;;;18.00;99.90;;;;;;5157672;27;20082;-28
2023/09/17 09:03:56;;;;;;;27.17;24.00;;;18.10;99.90;;;;;;5155985;27;20101;-28
2023/09/17 09:06:24;;;;;;;28.23;23.77;;;18.10;99.90;;;;;;5157290;27;20043;-27
2023/09/17 09:08:52;;;;;;;27.15;24.10;;;18.10;99.90;;;;;;5157278;27;20046;-28
2023/09/17 09:11:18;;;;;;;26.83;22.08;;;18.00;99.90;;;;;;5156600;27;20047;-28
2023/09/17 09:13:46;;;;;;;23.55;20.42;;;18.00;99.90;;;;;;5157111;27;20053;-28
2023/09/17 09:16:12;;;;;;;23.10;20.60;;;17.90;99.90;;;;;;5156967;27;20050;-28
2023/09/17 09:18:38;;;;;;;22.15;19.25;;;17.90;99.90;;;;;;5156950;27;20059;-27
2023/09/17 09:21:05;;;;;;;23.08;19.55;;;17.90;99.90;;;;;;5155689;27;20099;-28
2023/09/17 09:23:31;;;;;;;24.33;19.92;;;18.00;99.90;;;;;;5157143;27;20050;-28
2023/09/17 09:25:57;;;;;;;21.23;18.95;;;18.10;99.90;;;;;;5155633;27;20445;-28
2023/09/17 09:28:22;;;;;;;20.67;16.70;;;18.20;99.90;;;;;;5155777;27;20082;-28
2023/09/17 09:30:48;;;;;;;17.25;15.43;;;18.30;99.90;;;;;;5156624;27;20043;-28
2023/09/17 09:33:16;;;;;;;16.65;14.85;;;18.50;99.90;;;;;;5156524;27;20087;-28
2023/09/17 09:35:44;;;;;;;17.27;13.35;;;18.60;99.90;;;;;;5156201;27;20487;-28
2023/09/17 09:38:11;;;;;;;17.40;14.27;;;18.70;99.90;;;;;;5155961;27;20049;-29
2023/09/17 09:40:38;;;;;;;13.77;11.95;;;18.70;99.90;;;;;;5157074;27;20410;-28
2023/09/17 09:43:03;;;;;;;16.75;13.23;;;18.70;99.90;;;;;;5156438;27;20042;-28
2023/09/17 09:45:29;;;;;;;17.70;13.10;;;18.60;99.90;;;;;;5156446;27;20086;-28
2023/09/17 09:47:56;;;;;;;17.98;13.68;;;18.50;99.90;;;;;;5156104;27;20038;-28
2023/09/17 09:50:26;;;;;;;18.20;14.02;;;18.40;99.90;;;;;;5155294;27;20515;-28
2023/09/17 09:52:53;;;;;;;15.00;13.50;;;18.40;99.90;;;;;;5156371;27;20055;-28
2023/09/17 09:55:23;;;;;;;18.27;14.10;;;18.30;99.90;;;;;;5155404;27;20046;-27
2023/09/17 09:57:50;;;;;;;14.10;12.25;;;18.20;99.90;;;;;;5155975;27;20483;-28
2023/09/17 10:00:20;;;;;;;13.80;12.35;;;18.00;99.90;;;;;;5155203;27;20099;-28
2023/09/17 10:02:46;;;;;;;16.55;13.23;;;17.90;99.90;;;;;;5121214;27;20073;-28
2023/09/17 10:05:18;;;;;;;13.40;12.00;;;17.80;99.90;;;;;;5137445;27;20058;-27
2023/09/17 10:07:47;;;;;;;18.17;11.57;;;17.70;99.90;;;;;;5156375;27;20105;-28
2023/09/17 10:10:14;;;;;;;12.13;10.82;;;17.60;99.90;;;;;;5155977;27;20122;-28
2023/09/17 10:12:40;;;;;;;12.93;11.45;;;17.60;99.90;;;;;;5155959;27;20053;-28
2023/09/17 10:15:07;;;;;;;14.07;11.50;;;17.50;99.90;;;;;;5155794;27;20035;-28
2023/09/17 10:17:36;;;;;;;14.25;10.63;;;17.50;99.90;;;;;;5156635;27;20053;-28
2023/09/17 10:20:07;;;;;;;12.40;10.60;;;17.50;99.90;;;;;;5155116;27;20046;-27
2023/09/17 10:22:38;;;;;;;14.07;11.70;;;17.60;99.90;;;;;;5138137;27;20043;-27
2023/09/17 10:25:08;;;;;;;13.15;10.73;;;17.50;99.90;;;;;;5155787;27;20065;-28
2023/09/17 10:27:36;;;;;;;13.98;10.95;;;17.60;99.90;;;;;;5155647;27;20046;-28
2023/09/17 10:30:04;;;;;;;12.45;10.82;;;17.60;99.90;;;;;;5155614;27;20512;-28
2023/09/17 10:32:34;;;;;;;13.75;11.80;;;17.70;99.90;;;;;;5154639;27;20104;-28
2023/09/17 10:35:02;;;;;;;16.17;12.38;;;17.70;99.90;;;;;;5155379;27;20071;-28
2023/09/17 10:37:31;;;;;;;15.82;11.63;;;17.80;99.90;;;;;;5155396;27;20118;-27
2023/09/17 10:39:57;;;;;;;17.38;12.70;;;17.80;99.90;;;;;;5154063;27;20038;-28
2023/09/17 10:42:25;;;;;;;15.15;13.18;;;17.80;99.90;;;;;;5154470;27;20042;-27
2023/09/17 10:44:55;;;;;;;16.80;14.88;;;17.90;99.90;;;;;;5155109;27;20039;-27
2023/09/17 10:47:21;;;;;;;18.30;14.10;;;17.90;99.90;;;;;;5155432;27;20051;-28
2023/09/17 10:49:48;;;;;;;16.55;14.82;;;18.00;99.90;;;;;;5155583;27;20049;-28
2023/09/17 10:52:14;;;;;;;16.17;14.45;;;18.10;99.90;;;;;;5155398;27;20099;-28
2023/09/17 10:54:40;;;;;;;17.05;14.93;;;18.30;99.90;;;;;;5154650;27;20042;-27
2023/09/17 10:57:15;;;;;;;16.63;14.65;;;18.40;99.90;;;;;;5155785;27;20500;-27
2023/09/17 10:59:42;;;;;;;16.95;13.50;;;18.60;99.90;;;;;;5137572;27;20089;-28
2023/09/17 11:02:10;;;;;;;16.67;14.55;;;18.80;99.90;;;;;;5155023;27;20054;-28
2023/09/17 11:04:37;;;;;;;16.17;14.40;;;18.90;99.90;;;;;;5156054;27;20058;-28
2023/09/17 11:07:06;;;;;;;17.67;15.18;;;18.90;99.90;;;;;;5155869;27;20054;-28
2023/09/17 11:09:33;;;;;;;16.38;14.68;;;19.00;99.90;;;;;;5137254;27;20129;-28
2023/09/17 11:11:59;;;;;;;17.52;15.05;;;19.00;99.90;;;;;;5155087;27;20046;-27
2023/09/17 11:14:24;;;;;;;17.60;15.63;;;18.90;99.90;;;;;;5154851;27;20035;-26
2023/09/17 11:16:50;;;;;;;18.02;15.85;;;18.80;99.90;;;;;;5155074;27;20051;-27
2023/09/17 11:19:19;;;;;;;18.45;16.52;;;18.70;99.90;;;;;;5155036;27;20046;-26
2023/09/17 11:22:01;;;;;;;23.05;15.70;;;18.60;99.90;;;;;;5154907;27;20074;-26
2023/09/17 11:24:28;;;;;;;15.63;14.02;;;18.60;99.90;;;;;;5155659;27;20043;-26
2023/09/17 11:26:57;;;;;;;17.92;15.13;;;18.60;99.90;;;;;;5155585;27;20182;-26
2023/09/17 11:29:41;;;;;;;17.33;15.52;;;18.70;99.90;;;;;;5155052;27;20480;-26
2023/09/17 11:32:07;;;;;;;19.17;16.40;;;18.70;99.90;;;;;;5153916;27;20133;-26
2023/09/17 11:34:38;;;;;;;19.58;16.30;;;18.60;99.90;;;;;;5155453;27;20135;-26
2023/09/17 11:37:05;;;;;;;19.30;17.30;;;18.70;99.90;;;;;;5155011;27;20050;-26
2023/09/17 11:39:35;;;;;;;20.15;17.60;;;18.70;99.90;;;;;;5155495;27;20101;-26
2023/09/17 11:42:07;;;;;;;19.10;17.00;;;18.70;99.90;;;;;;5154845;27;20082;-26
2023/09/17 11:44:35;;;;;;;19.00;16.92;;;18.80;99.90;;;;;;5153841;27;20038;-26
2023/09/17 11:47:01;;;;;;;16.98;15.23;;;19.00;99.90;;;;;;5154704;27;20515;-26
2023/09/17 11:49:28;;;;;;;15.98;14.27;;;19.40;99.90;;;;;;5155107;27;20045;-26
2023/09/17 11:51:57;;;;;;;17.30;15.30;;;19.60;99.90;;;;;;5158813;27;20054;-26
2023/09/17 11:54:29;;;;;;;18.25;14.93;;;19.80;99.90;;;;;;5159341;27;20038;-26
2023/09/17 11:56:55;;;;;;;15.25;13.65;;;19.80;99.90;;;;;;5158642;27;20057;-26
2023/09/17 11:59:22;;;;;;;15.52;14.00;;;19.70;99.90;;;;;;5157417;27;20480;-26
2023/09/17 12:01:52;;;;;;;15.35;13.25;;;19.50;99.90;;;;;;5140564;27;20034;-26
2023/09/17 12:04:20;;;;;;;19.50;16.55;;;19.40;99.90;;;;;;5158477;27;20125;-26
2023/09/17 12:06:50;;;;;;;15.63;14.00;;;19.40;99.90;;;;;;5158260;27;20039;-27
2023/09/17 12:10:00;;;;;;;20.45;14.05;;;19.40;99.90;;;;;;5159245;27;20128;-26
2023/09/17 12:12:07;;;;;;;17.27;15.30;;;19.30;99.90;;;;;;5146632;27;20523;-26
2023/09/17 12:14:33;;;;;;;20.42;14.68;;;19.20;99.90;;;;;;5157176;27;20038;-26
2023/09/17 12:17:01;;;;;;;17.20;15.30;;;19.10;99.90;;;;;;5156961;27;20061;-26
2023/09/17 12:19:28;;;;;;;18.52;16.63;;;19.00;99.90;;;;;;5156937;27;20039;-26
2023/09/17 12:21:55;;;;;;;19.42;16.33;;;18.90;99.90;;;;;;5157940;27;20083;-27
2023/09/17 12:24:44;;;;;;;19.52;17.48;;;18.90;99.90;;;;;;5157432;27;20038;-26
2023/09/17 12:29:59;;;;;;;20.02;17.75;;;19.00;99.90;;;;;;5157890;27;20046;-26